Terminal Aerodrome Forecast
Issued by NWS Wichita, KS

Home | Current Version | Previous Version | Text Only | Print | Product List | Glossary On
Versions: 1 2 3 4 5 6 7 8 9 10 11 12 13 14 15 16 17 18 19 20 21 22 23 24 25 26 27
000
FTUS43 KICT 241721
TAFICT
TAF
KICT 241721Z 2418/2518 15010KT P6SM SCT015 BKN080
      TEMPO 2418/2419 BKN010
     FM241900 15010KT P6SM VCTS BKN010CB BKN080
      TEMPO 2419/2422 -TSRA
     FM242300 16010KT P6SM BKN012 OVC100
     FM250300 15005KT 3SM BR BKN006
     FM251500 18013KT P6SM SCT006 BKN025=

USA.gov is the U.S. government's official web portal to all federal, state and local government web resources and services.